sensor_id;sensor_type;location;lat;lon;timestamp;pressure;altitude;pressure_sealevel;temperature
76901;BMP280;65859;43.020;25.096;2023-05-07T00:01:11;99589.97;;;12.33
76901;BMP280;65859;43.020;25.096;2023-05-07T00:03:38;99601.09;;;12.89
76901;BMP280;65859;43.020;25.096;2023-05-07T00:06:05;99598.06;;;12.79
76901;BMP280;65859;43.020;25.096;2023-05-07T00:08:31;99597.63;;;12.35
76901;BMP280;65859;43.020;25.096;2023-05-07T00:10:58;99599.31;;;12.60
76901;BMP280;65859;43.020;25.096;2023-05-07T00:13:25;99600.50;;;13.04
76901;BMP280;65859;43.020;25.096;2023-05-07T00:15:51;99604.66;;;13.14
76901;BMP280;65859;43.020;25.096;2023-05-07T00:18:18;99597.75;;;13.13
76901;BMP280;65859;43.020;25.096;2023-05-07T00:20:47;99597.41;;;12.82
76901;BMP280;65859;43.020;25.096;2023-05-07T00:23:13;99603.56;;;12.94
76901;BMP280;65859;43.020;25.096;2023-05-07T00:25:39;99599.53;;;12.88
76901;BMP280;65859;43.020;25.096;2023-05-07T00:28:06;99609.16;;;13.01
76901;BMP280;65859;43.020;25.096;2023-05-07T00:30:32;99604.00;;;12.84
76901;BMP280;65859;43.020;25.096;2023-05-07T00:32:59;99606.66;;;12.63
76901;BMP280;65859;43.020;25.096;2023-05-07T00:35:25;99607.59;;;12.46
76901;BMP280;65859;43.020;25.096;2023-05-07T00:37:51;99613.00;;;11.06
76901;BMP280;65859;43.020;25.096;2023-05-07T00:40:18;99605.25;;;11.56
76901;BMP280;65859;43.020;25.096;2023-05-07T00:42:44;99610.22;;;12.26
76901;BMP280;65859;43.020;25.096;2023-05-07T00:45:15;99610.69;;;12.48
76901;BMP280;65859;43.020;25.096;2023-05-07T00:47:42;99606.03;;;12.66
76901;BMP280;65859;43.020;25.096;2023-05-07T00:50:09;99601.84;;;12.57
76901;BMP280;65859;43.020;25.096;2023-05-07T00:52:39;99601.59;;;12.50
76901;BMP280;65859;43.020;25.096;2023-05-07T00:55:07;99605.13;;;12.12
76901;BMP280;65859;43.020;25.096;2023-05-07T00:57:41;99604.31;;;11.90
76901;BMP280;65859;43.020;25.096;2023-05-07T01:00:10;99607.88;;;11.65
76901;BMP280;65859;43.020;25.096;2023-05-07T01:02:39;99613.31;;;11.22
76901;BMP280;65859;43.020;25.096;2023-05-07T01:05:07;99612.91;;;10.85
76901;BMP280;65859;43.020;25.096;2023-05-07T01:07:36;99599.47;;;10.64
76901;BMP280;65859;43.020;25.096;2023-05-07T01:10:04;99598.53;;;10.60
76901;BMP280;65859;43.020;25.096;2023-05-07T01:12:31;99604.28;;;10.45
76901;BMP280;65859;43.020;25.096;2023-05-07T01:14:58;99605.06;;;11.15
76901;BMP280;65859;43.020;25.096;2023-05-07T01:17:26;99604.00;;;11.92
76901;BMP280;65859;43.020;25.096;2023-05-07T01:19:53;99605.63;;;11.84
76901;BMP280;65859;43.020;25.096;2023-05-07T01:22:33;99607.78;;;11.44
76901;BMP280;65859;43.020;25.096;2023-05-07T01:25:00;99604.88;;;12.05
76901;BMP280;65859;43.020;25.096;2023-05-07T01:27:28;99604.50;;;11.85
76901;BMP280;65859;43.020;25.096;2023-05-07T01:29:54;99609.44;;;10.85
76901;BMP280;65859;43.020;25.096;2023-05-07T01:32:41;99609.75;;;10.92
76901;BMP280;65859;43.020;25.096;2023-05-07T01:35:11;99611.63;;;10.65
76901;BMP280;65859;43.020;25.096;2023-05-07T01:37:39;99618.34;;;10.45
76901;BMP280;65859;43.020;25.096;2023-05-07T01:40:06;99610.06;;;10.47
76901;BMP280;65859;43.020;25.096;2023-05-07T01:42:33;99594.00;;;10.61
76901;BMP280;65859;43.020;25.096;2023-05-07T01:45:00;99599.38;;;10.12
76901;BMP280;65859;43.020;25.096;2023-05-07T01:47:28;99602.16;;;10.07
76901;BMP280;65859;43.020;25.096;2023-05-07T01:49:55;99606.19;;;9.96
76901;BMP280;65859;43.020;25.096;2023-05-07T01:52:22;99596.06;;;10.07
76901;BMP280;65859;43.020;25.096;2023-05-07T01:54:48;99593.75;;;10.05
76901;BMP280;65859;43.020;25.096;2023-05-07T01:57:14;99595.97;;;10.20
76901;BMP280;65859;43.020;25.096;2023-05-07T01:59:41;99585.56;;;9.93
76901;BMP280;65859;43.020;25.096;2023-05-07T02:02:07;99585.56;;;9.84
76901;BMP280;65859;43.020;25.096;2023-05-07T02:04:33;99585.88;;;9.91
76901;BMP280;65859;43.020;25.096;2023-05-07T02:07:00;99570.75;;;9.92
76901;BMP280;65859;43.020;25.096;2023-05-07T02:09:26;99574.53;;;9.99
76901;BMP280;65859;43.020;25.096;2023-05-07T02:11:53;99573.88;;;9.85
76901;BMP280;65859;43.020;25.096;2023-05-07T02:14:19;99568.25;;;10.78
76901;BMP280;65859;43.020;25.096;2023-05-07T02:16:46;99569.53;;;9.89
76901;BMP280;65859;43.020;25.096;2023-05-07T02:19:14;99568.06;;;10.92
76901;BMP280;65859;43.020;25.096;2023-05-07T02:21:41;99571.34;;;10.80
76901;BMP280;65859;43.020;25.096;2023-05-07T02:24:07;99573.19;;;10.28
76901;BMP280;65859;43.020;25.096;2023-05-07T02:26:33;99568.66;;;10.20
76901;BMP280;65859;43.020;25.096;2023-05-07T02:29:00;99568.16;;;10.01
76901;BMP280;65859;43.020;25.096;2023-05-07T02:31:26;99565.06;;;10.24
76901;BMP280;65859;43.020;25.096;2023-05-07T02:33:53;99569.53;;;9.98
76901;BMP280;65859;43.020;25.096;2023-05-07T02:36:19;99561.78;;;11.05
76901;BMP280;65859;43.020;25.096;2023-05-07T02:38:45;99568.72;;;10.63
76901;BMP280;65859;43.020;25.096;2023-05-07T02:41:11;99562.09;;;10.09
76901;BMP280;65859;43.020;25.096;2023-05-07T02:43:38;99563.38;;;10.29
76901;BMP280;65859;43.020;25.096;2023-05-07T02:46:05;99561.63;;;10.15
76901;BMP280;65859;43.020;25.096;2023-05-07T02:48:32;99559.38;;;9.91
76901;BMP280;65859;43.020;25.096;2023-05-07T02:51:00;99556.50;;;10.19
76901;BMP280;65859;43.020;25.096;2023-05-07T02:53:27;99555.28;;;10.42
76901;BMP280;65859;43.020;25.096;2023-05-07T02:55:58;99556.81;;;10.43
76901;BMP280;65859;43.020;25.096;2023-05-07T02:58:25;99563.81;;;9.65
76901;BMP280;65859;43.020;25.096;2023-05-07T03:00:52;99560.53;;;10.16
76901;BMP280;65859;43.020;25.096;2023-05-07T03:03:18;99572.88;;;10.12
76901;BMP280;65859;43.020;25.096;2023-05-07T03:05:45;99565.41;;;10.58
76901;BMP280;65859;43.020;25.096;2023-05-07T03:08:11;99566.84;;;10.72
76901;BMP280;65859;43.020;25.096;2023-05-07T03:10:38;99570.63;;;9.88
76901;BMP280;65859;43.020;25.096;2023-05-07T03:13:05;99579.09;;;9.37
76901;BMP280;65859;43.020;25.096;2023-05-07T03:15:31;99568.22;;;9.38
76901;BMP280;65859;43.020;25.096;2023-05-07T03:17:57;99579.78;;;9.42
76901;BMP280;65859;43.020;25.096;2023-05-07T03:20:24;99580.50;;;9.65
76901;BMP280;65859;43.020;25.096;2023-05-07T03:22:51;99575.13;;;9.79
76901;BMP280;65859;43.020;25.096;2023-05-07T03:25:17;99581.16;;;10.19
76901;BMP280;65859;43.020;25.096;2023-05-07T03:27:44;99576.69;;;9.49
76901;BMP280;65859;43.020;25.096;2023-05-07T03:30:11;99579.09;;;10.16
76901;BMP280;65859;43.020;25.096;2023-05-07T03:32:37;99586.91;;;10.04
76901;BMP280;65859;43.020;25.096;2023-05-07T03:35:04;99587.19;;;9.32
76901;BMP280;65859;43.020;25.096;2023-05-07T03:37:30;99576.59;;;9.32
76901;BMP280;65859;43.020;25.096;2023-05-07T03:39:57;99579.72;;;9.65
76901;BMP280;65859;43.020;25.096;2023-05-07T03:42:23;99591.16;;;10.22
76901;BMP280;65859;43.020;25.096;2023-05-07T03:44:49;99587.19;;;10.11
76901;BMP280;65859;43.020;25.096;2023-05-07T03:47:16;99582.31;;;9.87
76901;BMP280;65859;43.020;25.096;2023-05-07T03:49:42;99591.84;;;9.35
76901;BMP280;65859;43.020;25.096;2023-05-07T03:52:08;99594.88;;;9.42
76901;BMP280;65859;43.020;25.096;2023-05-07T03:54:36;99596.19;;;9.93
76901;BMP280;65859;43.020;25.096;2023-05-07T03:57:02;99590.41;;;9.82
76901;BMP280;65859;43.020;25.096;2023-05-07T03:59:29;99590.41;;;9.51
76901;BMP280;65859;43.020;25.096;2023-05-07T04:01:55;99596.19;;;9.93
76901;BMP280;65859;43.020;25.096;2023-05-07T04:04:21;99595.91;;;10.03
76901;BMP280;65859;43.020;25.096;2023-05-07T04:06:48;99597.53;;;9.42
76901;BMP280;65859;43.020;25.096;2023-05-07T04:09:14;99602.06;;;10.30
76901;BMP280;65859;43.020;25.096;2023-05-07T04:11:41;99604.72;;;11.16
76901;BMP280;65859;43.020;25.096;2023-05-07T04:14:07;99610.84;;;10.91
76901;BMP280;65859;43.020;25.096;2023-05-07T04:16:35;99610.16;;;11.37
76901;BMP280;65859;43.020;25.096;2023-05-07T04:19:01;99602.00;;;11.51
76901;BMP280;65859;43.020;25.096;2023-05-07T04:21:27;99608.00;;;11.22
76901;BMP280;65859;43.020;25.096;2023-05-07T04:23:53;99615.81;;;11.27
76901;BMP280;65859;43.020;25.096;2023-05-07T04:26:21;99617.03;;;11.76
76901;BMP280;65859;43.020;25.096;2023-05-07T04:28:48;99611.34;;;11.66
76901;BMP280;65859;43.020;25.096;2023-05-07T04:31:15;99619.28;;;11.74
76901;BMP280;65859;43.020;25.096;2023-05-07T04:33:41;99616.38;;;11.58
76901;BMP280;65859;43.020;25.096;2023-05-07T04:36:08;99627.53;;;11.34
76901;BMP280;65859;43.020;25.096;2023-05-07T04:38:34;99630.28;;;11.47
76901;BMP280;65859;43.020;25.096;2023-05-07T04:41:05;99630.56;;;10.90
76901;BMP280;65859;43.020;25.096;2023-05-07T04:43:32;99630.03;;;10.53
76901;BMP280;65859;43.020;25.096;2023-05-07T04:45:58;99639.53;;;11.32
76901;BMP280;65859;43.020;25.096;2023-05-07T04:48:24;99625.16;;;11.88
76901;BMP280;65859;43.020;25.096;2023-05-07T04:50:51;99631.28;;;12.39
76901;BMP280;65859;43.020;25.096;2023-05-07T04:53:18;99633.91;;;12.18
76901;BMP280;65859;43.020;25.096;2023-05-07T04:55:44;99643.84;;;12.30
76901;BMP280;65859;43.020;25.096;2023-05-07T04:58:12;99645.78;;;11.91
76901;BMP280;65859;43.020;25.096;2023-05-07T05:00:39;99645.75;;;12.00
76901;BMP280;65859;43.020;25.096;2023-05-07T05:03:07;99645.50;;;12.64
76901;BMP280;65859;43.020;25.096;2023-05-07T05:05:33;99656.66;;;12.99
76901;BMP280;65859;43.020;25.096;2023-05-07T05:08:00;99646.97;;;13.28
76901;BMP280;65859;43.020;25.096;2023-05-07T05:10:26;99654.59;;;12.84
76901;BMP280;65859;43.020;25.096;2023-05-07T05:12:52;99644.72;;;13.18
76901;BMP280;65859;43.020;25.096;2023-05-07T05:15:19;99652.44;;;12.36
76901;BMP280;65859;43.020;25.096;2023-05-07T05:17:45;99655.38;;;12.64
76901;BMP280;65859;43.020;25.096;2023-05-07T05:20:12;99650.00;;;12.52
76901;BMP280;65859;43.020;25.096;2023-05-07T05:22:38;99657.44;;;13.00
76901;BMP280;65859;43.020;25.096;2023-05-07T05:25:05;99660.78;;;13.54
76901;BMP280;65859;43.020;25.096;2023-05-07T05:27:32;99662.38;;;13.68
76901;BMP280;65859;43.020;25.096;2023-05-07T05:29:59;99661.25;;;14.05
76901;BMP280;65859;43.020;25.096;2023-05-07T05:32:26;99656.41;;;13.38
76901;BMP280;65859;43.020;25.096;2023-05-07T05:34:52;99670.38;;;12.68
76901;BMP280;65859;43.020;25.096;2023-05-07T05:37:18;99667.34;;;12.58
76901;BMP280;65859;43.020;25.096;2023-05-07T05:39:45;99668.97;;;12.12
76901;BMP280;65859;43.020;25.096;2023-05-07T05:42:11;99659.72;;;13.68
76901;BMP280;65859;43.020;25.096;2023-05-07T05:44:37;99658.84;;;12.97
76901;BMP280;65859;43.020;25.096;2023-05-07T05:47:04;99663.69;;;12.62
76901;BMP280;65859;43.020;25.096;2023-05-07T05:49:30;99660.81;;;12.67
76901;BMP280;65859;43.020;25.096;2023-05-07T05:51:56;99662.78;;;12.79
76901;BMP280;65859;43.020;25.096;2023-05-07T05:54:23;99666.13;;;13.09
76901;BMP280;65859;43.020;25.096;2023-05-07T05:56:49;99674.16;;;13.79
76901;BMP280;65859;43.020;25.096;2023-05-07T05:59:16;99673.53;;;13.37
76901;BMP280;65859;43.020;25.096;2023-05-07T06:01:44;99678.72;;;13.78
76901;BMP280;65859;43.020;25.096;2023-05-07T06:04:10;99682.19;;;14.96
76901;BMP280;65859;43.020;25.096;2023-05-07T06:06:36;99676.38;;;16.20
76901;BMP280;65859;43.020;25.096;2023-05-07T06:09:03;99675.22;;;16.02
76901;BMP280;65859;43.020;25.096;2023-05-07T06:11:29;99674.13;;;15.87
76901;BMP280;65859;43.020;25.096;2023-05-07T06:13:56;99684.41;;;16.20
76901;BMP280;65859;43.020;25.096;2023-05-07T06:16:22;99681.28;;;16.72
76901;BMP280;65859;43.020;25.096;2023-05-07T06:18:48;99684.75;;;15.99
76901;BMP280;65859;43.020;25.096;2023-05-07T06:21:14;99683.25;;;17.18
76901;BMP280;65859;43.020;25.096;2023-05-07T06:23:41;99683.25;;;17.18
76901;BMP280;65859;43.020;25.096;2023-05-07T06:26:07;99681.84;;;17.24
76901;BMP280;65859;43.020;25.096;2023-05-07T06:28:34;99676.22;;;18.08
76901;BMP280;65859;43.020;25.096;2023-05-07T06:31:18;99673.34;;;17.94
76901;BMP280;65859;43.020;25.096;2023-05-07T06:33:50;99671.97;;;17.08
76901;BMP280;65859;43.020;25.096;2023-05-07T06:36:16;99667.19;;;18.57
76901;BMP280;65859;43.020;25.096;2023-05-07T06:38:43;99674.84;;;18.55
76901;BMP280;65859;43.020;25.096;2023-05-07T06:41:09;99673.53;;;18.75
76901;BMP280;65859;43.020;25.096;2023-05-07T06:43:36;99674.50;;;16.98
76901;BMP280;65859;43.020;25.096;2023-05-07T06:46:02;99670.59;;;18.20
76901;BMP280;65859;43.020;25.096;2023-05-07T06:48:29;99668.47;;;18.37
76901;BMP280;65859;43.020;25.096;2023-05-07T06:50:55;99664.91;;;19.00
76901;BMP280;65859;43.020;25.096;2023-05-07T06:53:24;99658.88;;;18.73
76901;BMP280;65859;43.020;25.096;2023-05-07T06:55:50;99661.50;;;18.28
76901;BMP280;65859;43.020;25.096;2023-05-07T06:58:18;99649.13;;;19.49
76901;BMP280;65859;43.020;25.096;2023-05-07T07:00:44;99647.53;;;20.10
76901;BMP280;65859;43.020;25.096;2023-05-07T07:03:11;99645.69;;;20.25
76901;BMP280;65859;43.020;25.096;2023-05-07T07:05:41;99647.25;;;19.02
76901;BMP280;65859;43.020;25.096;2023-05-07T07:08:07;99644.44;;;18.88
76901;BMP280;65859;43.020;25.096;2023-05-07T07:10:34;99646.91;;;19.59
76901;BMP280;65859;43.020;25.096;2023-05-07T07:13:00;99643.38;;;20.34
76901;BMP280;65859;43.020;25.096;2023-05-07T07:15:27;99653.06;;;20.46
76901;BMP280;65859;43.020;25.096;2023-05-07T07:17:53;99655.03;;;20.88
76901;BMP280;65859;43.020;25.096;2023-05-07T07:20:20;99649.25;;;20.68
76901;BMP280;65859;43.020;25.096;2023-05-07T07:22:46;99652.31;;;20.88
76901;BMP280;65859;43.020;25.096;2023-05-07T07:25:12;99646.16;;;21.30
76901;BMP280;65859;43.020;25.096;2023-05-07T07:27:39;99655.31;;;21.72
76901;BMP280;65859;43.020;25.096;2023-05-07T07:30:06;99657.56;;;21.77
76901;BMP280;65859;43.020;25.096;2023-05-07T07:32:33;99647.94;;;21.80
76901;BMP280;65859;43.020;25.096;2023-05-07T07:35:00;99651.47;;;22.39
76901;BMP280;65859;43.020;25.096;2023-05-07T07:37:27;99647.28;;;22.35
76901;BMP280;65859;43.020;25.096;2023-05-07T07:39:54;99647.47;;;21.95
76901;BMP280;65859;43.020;25.096;2023-05-07T07:42:21;99657.88;;;22.08
76901;BMP280;65859;43.020;25.096;2023-05-07T07:44:47;99656.38;;;22.58
76901;BMP280;65859;43.020;25.096;2023-05-07T07:47:14;99652.78;;;22.17
76901;BMP280;65859;43.020;25.096;2023-05-07T07:49:40;99654.75;;;22.72
76901;BMP280;65859;43.020;25.096;2023-05-07T07:52:07;99655.00;;;22.91
76901;BMP280;65859;43.020;25.096;2023-05-07T07:54:33;99646.06;;;22.39
76901;BMP280;65859;43.020;25.096;2023-05-07T07:56:59;99643.69;;;22.52
76901;BMP280;65859;43.020;25.096;2023-05-07T07:59:27;99635.66;;;21.57
76901;BMP280;65859;43.020;25.096;2023-05-07T08:01:53;99640.56;;;22.57
76901;BMP280;65859;43.020;25.096;2023-05-07T08:04:22;99630.50;;;23.40
76901;BMP280;65859;43.020;25.096;2023-05-07T08:06:49;99626.09;;;20.67
76901;BMP280;65859;43.020;25.096;2023-05-07T08:09:17;99634.22;;;23.15
76901;BMP280;65859;43.020;25.096;2023-05-07T08:11:43;99625.34;;;20.85
76901;BMP280;65859;43.020;25.096;2023-05-07T08:14:10;99621.41;;;21.46
76901;BMP280;65859;43.020;25.096;2023-05-07T08:16:37;99627.94;;;21.52
76901;BMP280;65859;43.020;25.096;2023-05-07T08:19:03;99625.78;;;22.06
76901;BMP280;65859;43.020;25.096;2023-05-07T08:21:29;99624.72;;;23.00
76901;BMP280;65859;43.020;25.096;2023-05-07T08:23:56;99628.03;;;23.83
76901;BMP280;65859;43.020;25.096;2023-05-07T08:26:23;99619.97;;;23.45
76901;BMP280;65859;43.020;25.096;2023-05-07T08:28:49;99615.91;;;23.60
76901;BMP280;65859;43.020;25.096;2023-05-07T08:31:15;99615.63;;;24.39
76901;BMP280;65859;43.020;25.096;2023-05-07T08:33:42;99613.06;;;24.75
76901;BMP280;65859;43.020;25.096;2023-05-07T08:36:08;99610.47;;;24.45
76901;BMP280;65859;43.020;25.096;2023-05-07T08:38:34;99607.91;;;24.81
76901;BMP280;65859;43.020;25.096;2023-05-07T08:41:02;99605.88;;;25.08
76901;BMP280;65859;43.020;25.096;2023-05-07T08:43:29;99613.97;;;26.65
76901;BMP280;65859;43.020;25.096;2023-05-07T08:45:59;99637.78;;;31.76
76901;BMP280;65859;43.020;25.096;2023-05-07T08:48:27;99641.50;;;28.95
76901;BMP280;65859;43.020;25.096;2023-05-07T08:50:55;99642.19;;;31.49
76901;BMP280;65859;43.020;25.096;2023-05-07T08:53:22;99635.00;;;31.52
76901;BMP280;65859;43.020;25.096;2023-05-07T08:55:49;99635.75;;;30.68
76901;BMP280;65859;43.020;25.096;2023-05-07T08:58:15;99632.41;;;30.37
76901;BMP280;65859;43.020;25.096;2023-05-07T09:00:42;99638.63;;;27.57
76901;BMP280;65859;43.020;25.096;2023-05-07T09:03:08;99630.84;;;27.18
76901;BMP280;65859;43.020;25.096;2023-05-07T09:05:38;99627.75;;;33.64
76901;BMP280;65859;43.020;25.096;2023-05-07T09:08:06;99627.63;;;33.99
76901;BMP280;65859;43.020;25.096;2023-05-07T09:10:33;99633.13;;;31.58
76901;BMP280;65859;43.020;25.096;2023-05-07T09:13:02;99633.50;;;32.22
76901;BMP280;65859;43.020;25.096;2023-05-07T09:15:29;99628.59;;;33.35
76901;BMP280;65859;43.020;25.096;2023-05-07T09:17:59;99620.91;;;34.51
76901;BMP280;65859;43.020;25.096;2023-05-07T09:20:28;99626.72;;;36.03
76901;BMP280;65859;43.020;25.096;2023-05-07T09:22:56;99637.88;;;28.08
76901;BMP280;65859;43.020;25.096;2023-05-07T09:25:33;99626.81;;;25.67
76901;BMP280;65859;43.020;25.096;2023-05-07T09:28:01;99617.75;;;28.14
76901;BMP280;65859;43.020;25.096;2023-05-07T09:30:32;99623.47;;;26.73
76901;BMP280;65859;43.020;25.096;2023-05-07T09:33:00;99629.00;;;28.04
76901;BMP280;65859;43.020;25.096;2023-05-07T09:35:27;99623.81;;;27.04
76901;BMP280;65859;43.020;25.096;2023-05-07T09:37:54;99622.38;;;27.12
76901;BMP280;65859;43.020;25.096;2023-05-07T09:40:22;99624.91;;;27.19
76901;BMP280;65859;43.020;25.096;2023-05-07T09:42:50;99618.81;;;26.86
76901;BMP280;65859;43.020;25.096;2023-05-07T09:45:27;99626.03;;;26.93
76901;BMP280;65859;43.020;25.096;2023-05-07T09:47:56;99607.13;;;33.39
76901;BMP280;65859;43.020;25.096;2023-05-07T09:50:32;99612.41;;;36.61
76901;BMP280;65859;43.020;25.096;2023-05-07T09:53:00;99610.91;;;29.41
76901;BMP280;65859;43.020;25.096;2023-05-07T09:55:27;99612.59;;;30.51
76901;BMP280;65859;43.020;25.096;2023-05-07T09:57:54;99615.38;;;28.73
76901;BMP280;65859;43.020;25.096;2023-05-07T10:00:22;99613.00;;;31.85
76901;BMP280;65859;43.020;25.096;2023-05-07T10:02:52;99617.13;;;30.82
76901;BMP280;65859;43.020;25.096;2023-05-07T10:05:21;99616.25;;;30.48
76901;BMP280;65859;43.020;25.096;2023-05-07T10:07:48;99606.81;;;28.27
76901;BMP280;65859;43.020;25.096;2023-05-07T10:10:15;99603.38;;;35.28
76901;BMP280;65859;43.020;25.096;2023-05-07T10:12:42;99614.78;;;35.10
76901;BMP280;65859;43.020;25.096;2023-05-07T10:15:09;99595.03;;;33.71
76901;BMP280;65859;43.020;25.096;2023-05-07T10:17:39;99587.03;;;30.45
76901;BMP280;65859;43.020;25.096;2023-05-07T10:20:07;99589.63;;;27.79
76901;BMP280;65859;43.020;25.096;2023-05-07T10:22:45;99572.16;;;26.27
76901;BMP280;65859;43.020;25.096;2023-05-07T10:25:25;99550.34;;;27.13
76901;BMP280;65859;43.020;25.096;2023-05-07T10:27:57;99543.09;;;26.52
76901;BMP280;65859;43.020;25.096;2023-05-07T10:32:53;99535.22;;;26.42
76901;BMP280;65859;43.020;25.096;2023-05-07T10:35:29;99533.63;;;25.47
76901;BMP280;65859;43.020;25.096;2023-05-07T10:37:56;99524.41;;;25.77
76901;BMP280;65859;43.020;25.096;2023-05-07T10:40:22;99523.38;;;26.48
76901;BMP280;65859;43.020;25.096;2023-05-07T10:43:01;99517.81;;;26.39
76901;BMP280;65859;43.020;25.096;2023-05-07T10:45:29;99511.63;;;27.06
76901;BMP280;65859;43.020;25.096;2023-05-07T10:48:12;99509.81;;;26.32
76901;BMP280;65859;43.020;25.096;2023-05-07T10:50:41;99505.56;;;27.02
76901;BMP280;65859;43.020;25.096;2023-05-07T10:55:45;99507.63;;;25.62
76901;BMP280;65859;43.020;25.096;2023-05-07T11:00:48;99504.34;;;25.71
76901;BMP280;65859;43.020;25.096;2023-05-07T11:03:15;99501.50;;;25.58
76901;BMP280;65859;43.020;25.096;2023-05-07T11:05:42;99501.53;;;25.90
76901;BMP280;65859;43.020;25.096;2023-05-07T11:08:09;99502.94;;;25.30
76901;BMP280;65859;43.020;25.096;2023-05-07T11:11:11;99494.81;;;25.79
76901;BMP280;65859;43.020;25.096;2023-05-07T11:13:49;99499.16;;;25.08
76901;BMP280;65859;43.020;25.096;2023-05-07T11:16:23;99489.56;;;25.55
76901;BMP280;65859;43.020;25.096;2023-05-07T11:18:53;99489.34;;;23.31
76901;BMP280;65859;43.020;25.096;2023-05-07T11:23:59;99475.63;;;24.42
76901;BMP280;65859;43.020;25.096;2023-05-07T11:26:27;99483.19;;;24.31
76901;BMP280;65859;43.020;25.096;2023-05-07T11:28:54;99474.56;;;24.55
76901;BMP280;65859;43.020;25.096;2023-05-07T11:31:25;99475.56;;;24.22
76901;BMP280;65859;43.020;25.096;2023-05-07T11:33:53;99465.41;;;24.26
76901;BMP280;65859;43.020;25.096;2023-05-07T11:36:20;99473.47;;;23.59
76901;BMP280;65859;43.020;25.096;2023-05-07T11:38:47;99470.47;;;23.54
76901;BMP280;65859;43.020;25.096;2023-05-07T11:41:13;99462.28;;;23.57
76901;BMP280;65859;43.020;25.096;2023-05-07T11:43:54;99453.72;;;24.29
76901;BMP280;65859;43.020;25.096;2023-05-07T11:46:22;99446.19;;;23.93
76901;BMP280;65859;43.020;25.096;2023-05-07T11:48:48;99458.25;;;23.92
76901;BMP280;65859;43.020;25.096;2023-05-07T11:51:25;99444.47;;;23.83
76901;BMP280;65859;43.020;25.096;2023-05-07T11:53:53;99446.69;;;23.88
76901;BMP280;65859;43.020;25.096;2023-05-07T11:56:19;99447.72;;;23.71
76901;BMP280;65859;43.020;25.096;2023-05-07T11:58:48;99447.59;;;23.78
76901;BMP280;65859;43.020;25.096;2023-05-07T12:01:15;99442.19;;;23.55
76901;BMP280;65859;43.020;25.096;2023-05-07T12:03:43;99431.81;;;23.97
76901;BMP280;65859;43.020;25.096;2023-05-07T12:06:12;99437.63;;;24.18
76901;BMP280;65859;43.020;25.096;2023-05-07T12:08:40;99436.28;;;24.30
76901;BMP280;65859;43.020;25.096;2023-05-07T12:11:14;99431.09;;;24.16
76901;BMP280;65859;43.020;25.096;2023-05-07T12:13:42;99429.06;;;23.50
76901;BMP280;65859;43.020;25.096;2023-05-07T12:16:09;99426.25;;;23.84
76901;BMP280;65859;43.020;25.096;2023-05-07T12:18:36;99421.03;;;24.16
76901;BMP280;65859;43.020;25.096;2023-05-07T12:21:05;99417.78;;;24.45
76901;BMP280;65859;43.020;25.096;2023-05-07T12:23:35;99418.50;;;24.49
76901;BMP280;65859;43.020;25.096;2023-05-07T12:26:02;99414.88;;;23.92
76901;BMP280;65859;43.020;25.096;2023-05-07T12:28:28;99415.22;;;23.21
76901;BMP280;65859;43.020;25.096;2023-05-07T12:30:56;99410.00;;;24.04
76901;BMP280;65859;43.020;25.096;2023-05-07T12:33:26;99416.22;;;23.57
76901;BMP280;65859;43.020;25.096;2023-05-07T12:35:55;99401.03;;;23.37
76901;BMP280;65859;43.020;25.096;2023-05-07T12:38:22;99414.00;;;23.49
76901;BMP280;65859;43.020;25.096;2023-05-07T12:40:50;99413.75;;;23.13
76901;BMP280;65859;43.020;25.096;2023-05-07T12:43:18;99411.09;;;23.09
76901;BMP280;65859;43.020;25.096;2023-05-07T12:45:46;99407.19;;;23.41
76901;BMP280;65859;43.020;25.096;2023-05-07T12:48:13;99400.59;;;23.65
76901;BMP280;65859;43.020;25.096;2023-05-07T12:50:39;99405.53;;;23.93
76901;BMP280;65859;43.020;25.096;2023-05-07T12:53:07;99407.16;;;23.91
76901;BMP280;65859;43.020;25.096;2023-05-07T12:55:48;99412.16;;;23.92
76901;BMP280;65859;43.020;25.096;2023-05-07T13:00:42;99407.91;;;23.91
76901;BMP280;65859;43.020;25.096;2023-05-07T13:03:10;99402.16;;;23.86
76901;BMP280;65859;43.020;25.096;2023-05-07T13:05:36;99402.25;;;24.06
76901;BMP280;65859;43.020;25.096;2023-05-07T13:08:02;99398.03;;;23.81
76901;BMP280;65859;43.020;25.096;2023-05-07T13:10:29;99395.63;;;24.07
76901;BMP280;65859;43.020;25.096;2023-05-07T13:12:55;99395.50;;;24.14
76901;BMP280;65859;43.020;25.096;2023-05-07T13:15:23;99386.88;;;24.19
76901;BMP280;65859;43.020;25.096;2023-05-07T13:17:49;99385.25;;;23.78
76901;BMP280;65859;43.020;25.096;2023-05-07T13:20:16;99373.31;;;23.76
76901;BMP280;65859;43.020;25.096;2023-05-07T13:22:43;99381.41;;;23.79
76901;BMP280;65859;43.020;25.096;2023-05-07T13:25:09;99383.19;;;23.86
76901;BMP280;65859;43.020;25.096;2023-05-07T13:27:37;99376.34;;;23.81
76901;BMP280;65859;43.020;25.096;2023-05-07T13:30:05;99379.91;;;23.98
76901;BMP280;65859;43.020;25.096;2023-05-07T13:32:32;99377.47;;;23.57
76901;BMP280;65859;43.020;25.096;2023-05-07T13:34:59;99380.13;;;23.60
76901;BMP280;65859;43.020;25.096;2023-05-07T13:37:25;99377.19;;;23.28
76901;BMP280;65859;43.020;25.096;2023-05-07T13:39:51;99373.69;;;23.54
76901;BMP280;65859;43.020;25.096;2023-05-07T13:42:18;99365.56;;;23.54
76901;BMP280;65859;43.020;25.096;2023-05-07T13:44:44;99374.91;;;23.73
76901;BMP280;65859;43.020;25.096;2023-05-07T13:47:11;99379.75;;;23.35
76901;BMP280;65859;43.020;25.096;2023-05-07T13:49:37;99372.06;;;23.34
76901;BMP280;65859;43.020;25.096;2023-05-07T13:52:04;99384.84;;;23.33
76901;BMP280;65859;43.020;25.096;2023-05-07T13:54:30;99372.19;;;23.50
76901;BMP280;65859;43.020;25.096;2023-05-07T13:56:56;99373.63;;;23.58
76901;BMP280;65859;43.020;25.096;2023-05-07T13:59:25;99373.63;;;23.58
76901;BMP280;65859;43.020;25.096;2023-05-07T14:01:51;99372.81;;;23.61
76901;BMP280;65859;43.020;25.096;2023-05-07T14:04:17;99370.31;;;23.70
76901;BMP280;65859;43.020;25.096;2023-05-07T14:06:43;99357.53;;;23.71
76901;BMP280;65859;43.020;25.096;2023-05-07T14:09:10;99360.19;;;23.74
76901;BMP280;65859;43.020;25.096;2023-05-07T14:11:39;99367.00;;;23.82